Girard, Ohio
Current Conditions -  °F | °C
As of 11:51 AM on Thursday 30 Oct 2014 (Local Time) from KYNG Reporting Station
Overcast Overcast  
Wind Chill: 44°   Ceiling: 1700
Heat Index: 48°   Visibility: 10mi
Dew Point: 39°   Wind: 9mph
Humidity: 71%   Direction: 320°NW
Pressure: 30.1"   Gusts: NA
Location:  41.15°N, 80.7°W
Report Text: KYNG 301551Z 32008KT 10SM BKN017 OVC048 09/04 A3010 RMK AO2 SLP198 T00890039 $
Loading
Personal Weather Stations






























Interactive Weather Map
Tropical Storm Tracking
New forecast layout! Learn more

10-Day Weather Forecast

Advertisements
Track Severe Weather on mobile